createdAt,value
2023-06-03T00:00:41.436Z,2798.00
2023-06-03T00:01:41.461Z,2781.00
2023-06-03T00:02:41.562Z,2772.00
2023-06-03T00:03:41.510Z,2820.00
2023-06-03T00:04:41.515Z,2800.00
2023-06-03T00:05:41.553Z,2759.00
2023-06-03T00:06:41.507Z,2785.00
2023-06-03T00:07:41.525Z,2804.00
2023-06-03T00:08:41.533Z,2814.00
2023-06-03T00:09:41.575Z,2807.00
2023-06-03T00:10:41.598Z,2803.00
2023-06-03T00:11:41.590Z,2792.00
2023-06-03T00:12:41.585Z,2804.00
2023-06-03T00:13:41.607Z,2810.00
2023-06-03T00:14:41.619Z,2791.00
2023-06-03T00:15:41.623Z,2767.00
2023-06-03T00:16:41.663Z,2754.00
2023-06-03T00:17:41.686Z,2803.00
2023-06-03T00:18:41.692Z,2771.00
2023-06-03T00:19:41.663Z,2778.00
2023-06-03T00:20:41.698Z,2755.00
2023-06-03T00:21:41.738Z,2804.00
2023-06-03T00:22:41.825Z,2794.00
2023-06-03T00:23:41.786Z,2803.00
2023-06-03T00:24:41.746Z,2792.00
2023-06-03T00:25:41.783Z,2806.00
2023-06-03T00:26:41.790Z,2801.00
2023-06-03T00:27:41.805Z,2807.00
2023-06-03T00:28:41.828Z,2747.00
2023-06-03T00:29:41.838Z,2735.00
2023-06-03T00:30:41.866Z,2726.00
2023-06-03T00:31:41.927Z,2739.00
2023-06-03T00:32:41.894Z,2764.00
2023-06-03T00:33:42.001Z,2779.00
2023-06-03T00:34:41.885Z,2774.00
2023-06-03T00:35:41.888Z,2717.00
2023-06-03T00:36:41.875Z,2608.00
2023-06-03T00:37:41.910Z,2537.00
2023-06-03T00:38:41.891Z,2580.00
2023-06-03T00:39:41.890Z,2655.00
2023-06-03T00:40:41.905Z,2718.00
2023-06-03T00:41:41.928Z,2743.00
2023-06-03T00:42:41.920Z,2734.00
2023-06-03T00:43:41.960Z,2763.00
2023-06-03T00:44:41.918Z,2741.00
2023-06-03T00:45:42.033Z,2753.00
2023-06-03T00:46:41.930Z,2702.00
2023-06-03T00:47:41.981Z,2677.00
2023-06-03T00:48:41.956Z,2665.00
2023-06-03T00:49:41.965Z,2640.00
2023-06-03T00:50:41.975Z,2703.00
2023-06-03T00:51:42.018Z,2704.00
2023-06-03T00:52:42.030Z,2699.00
2023-06-03T00:53:42.051Z,2706.00
2023-06-03T00:54:42.010Z,2758.00
2023-06-03T00:55:42.071Z,2742.00
2023-06-03T00:56:42.054Z,2779.00
2023-06-03T00:57:42.110Z,2777.00
2023-06-03T00:58:42.115Z,2784.00
2023-06-03T00:59:42.095Z,2812.00
2023-06-03T01:00:42.140Z,2810.00
2023-06-03T01:01:42.148Z,2799.00
2023-06-03T01:02:42.186Z,2806.00
2023-06-03T01:03:42.175Z,2790.00
2023-06-03T01:04:42.167Z,2818.00
2023-06-03T01:05:42.177Z,2801.00
2023-06-03T01:06:42.168Z,2775.00
2023-06-03T01:07:42.208Z,2776.00
2023-06-03T01:08:42.208Z,2710.00
2023-06-03T01:09:42.239Z,2739.00
2023-06-03T01:10:42.249Z,2718.00
2023-06-03T01:11:42.274Z,2694.00
2023-06-03T01:12:42.351Z,2729.00
2023-06-03T01:13:42.315Z,2752.00
2023-06-03T01:14:42.330Z,2760.00
2023-06-03T01:15:42.420Z,2759.00
2023-06-03T01:16:42.336Z,2732.00
2023-06-03T01:17:42.383Z,2734.00
2023-06-03T01:18:42.378Z,2739.00
2023-06-03T01:19:42.356Z,2732.00
2023-06-03T01:20:42.398Z,2737.00
2023-06-03T01:21:42.383Z,2754.00
2023-06-03T01:22:42.435Z,2754.00
2023-06-03T01:23:42.462Z,2782.00
2023-06-03T01:24:42.449Z,2779.00
2023-06-03T01:25:42.461Z,2795.00
2023-06-03T01:26:42.481Z,2781.00
2023-06-03T01:27:42.507Z,2768.00
2023-06-03T01:28:42.540Z,2791.00
2023-06-03T01:29:42.533Z,2815.00
2023-06-03T01:30:42.552Z,2806.00
2023-06-03T01:31:42.696Z,2824.00
2023-06-03T01:32:42.662Z,2817.00
2023-06-03T01:33:42.575Z,2800.00
2023-06-03T01:34:42.616Z,2830.00
2023-06-03T01:35:42.615Z,2810.00
2023-06-03T01:36:42.673Z,2766.00
2023-06-03T01:37:42.689Z,2731.00
2023-06-03T01:38:42.662Z,2723.00
2023-06-03T01:39:42.691Z,2754.00
2023-06-03T01:40:42.684Z,2751.00
2023-06-03T01:41:42.647Z,2767.00
2023-06-03T01:42:42.662Z,2759.00
2023-06-03T01:43:42.652Z,2730.00
2023-06-03T01:44:42.704Z,2567.00
2023-06-03T01:45:42.706Z,2464.00
2023-06-03T01:46:42.745Z,2410.00
2023-06-03T01:47:42.743Z,2373.00
2023-06-03T01:48:42.698Z,2382.00
2023-06-03T01:49:42.693Z,2346.00
2023-06-03T01:50:42.705Z,2291.00
2023-06-03T01:51:42.752Z,2245.00
2023-06-03T01:52:42.740Z,2298.00
2023-06-03T01:53:42.740Z,2354.00
2023-06-03T01:54:42.778Z,2417.00
2023-06-03T01:55:42.761Z,2374.00
2023-06-03T01:56:42.792Z,2282.00
2023-06-03T01:57:42.814Z,2251.00
2023-06-03T01:58:42.829Z,2190.00
2023-06-03T01:59:42.794Z,2192.00
2023-06-03T02:00:42.845Z,2236.00
2023-06-03T02:01:42.846Z,2318.00
2023-06-03T02:02:42.958Z,2388.00
2023-06-03T02:03:42.876Z,2443.00
2023-06-03T02:04:42.880Z,2463.00
2023-06-03T02:05:42.901Z,2481.00
2023-06-03T02:06:42.929Z,2471.00
2023-06-03T02:07:42.948Z,2512.00
2023-06-03T02:08:42.924Z,2528.00
2023-06-03T02:09:42.974Z,2542.00
2023-06-03T02:10:42.982Z,2560.00
2023-06-03T02:11:43.008Z,2540.00
2023-06-03T02:12:43.021Z,2533.00
2023-06-03T02:13:43.008Z,2577.00
2023-06-03T02:14:43.043Z,2606.00
2023-06-03T02:15:43.068Z,2542.00
2023-06-03T02:16:43.096Z,2555.00
2023-06-03T02:17:43.097Z,2570.00
2023-06-03T02:18:43.132Z,2607.00
2023-06-03T02:19:43.099Z,2588.00
2023-06-03T02:20:43.147Z,2535.00
2023-06-03T02:21:43.164Z,2491.00
2023-06-03T02:22:43.157Z,2471.00
2023-06-03T02:23:43.274Z,2411.00
2023-06-03T02:24:43.195Z,2357.00
2023-06-03T02:25:43.181Z,2323.00
2023-06-03T02:26:43.237Z,2313.00
2023-06-03T02:27:43.283Z,2357.00
2023-06-03T02:28:43.285Z,2356.00
2023-06-03T02:29:43.291Z,2400.00
2023-06-03T02:30:43.267Z,2444.00
2023-06-03T02:31:43.315Z,2452.00
2023-06-03T02:32:43.334Z,2484.00
2023-06-03T02:33:43.340Z,2504.00
2023-06-03T02:34:43.338Z,2508.00
2023-06-03T02:35:43.367Z,2542.00
2023-06-03T02:36:43.393Z,2540.00
2023-06-03T02:37:43.395Z,2543.00
2023-06-03T02:38:43.417Z,2541.00
2023-06-03T02:39:43.430Z,2572.00
2023-06-03T02:40:43.433Z,2569.00
2023-06-03T02:41:44.754Z,2580.00
2023-06-03T02:42:43.452Z,2552.00
2023-06-03T02:43:43.466Z,2546.00
2023-06-03T02:44:43.441Z,2550.00
2023-06-03T02:45:43.526Z,2522.00
2023-06-03T02:46:43.545Z,2506.00
2023-06-03T02:47:43.572Z,2514.00
2023-06-03T02:48:43.534Z,2547.00
2023-06-03T02:49:43.536Z,2547.00
2023-06-03T02:50:43.563Z,2552.00
2023-06-03T02:51:43.585Z,2548.00
2023-06-03T02:52:43.611Z,2553.00
2023-06-03T02:53:43.596Z,2533.00
2023-06-03T02:54:43.632Z,2555.00
2023-06-03T02:55:43.638Z,2560.00
2023-06-03T02:56:43.642Z,2563.00
2023-06-03T02:57:43.653Z,2566.00
2023-06-03T02:58:43.666Z,2527.00
2023-06-03T02:59:43.697Z,2513.00
2023-06-03T03:00:43.705Z,2536.00
2023-06-03T03:01:43.766Z,2540.00
2023-06-03T03:02:43.831Z,2511.00
2023-06-03T03:03:43.781Z,2524.00
2023-06-03T03:04:43.763Z,2521.00
2023-06-03T03:05:43.768Z,2517.00
2023-06-03T03:06:43.792Z,2539.00
2023-06-03T03:07:43.827Z,2538.00
2023-06-03T03:08:43.802Z,2532.00
2023-06-03T03:09:43.809Z,2545.00
2023-06-03T03:10:43.835Z,2565.00
2023-06-03T03:11:43.851Z,2537.00
2023-06-03T03:12:43.856Z,2546.00
2023-06-03T03:13:43.876Z,2543.00
2023-06-03T03:14:43.903Z,2559.00
2023-06-03T03:15:43.877Z,2587.00
2023-06-03T03:16:43.975Z,2611.00
2023-06-03T03:17:44.012Z,2589.00
2023-06-03T03:18:43.939Z,2590.00
2023-06-03T03:19:43.966Z,2581.00
2023-06-03T03:20:43.950Z,2574.00
2023-06-03T03:21:43.985Z,2580.00
2023-06-03T03:22:44.040Z,2618.00
2023-06-03T03:23:44.062Z,2556.00
2023-06-03T03:24:44.040Z,2472.00
2023-06-03T03:25:44.069Z,2403.00
2023-06-03T03:26:44.057Z,2341.00
2023-06-03T03:27:44.060Z,2299.00
2023-06-03T03:28:44.053Z,2285.00
2023-06-03T03:29:44.064Z,2255.00
2023-06-03T03:30:44.083Z,2254.00
2023-06-03T03:31:44.138Z,2218.00
2023-06-03T03:32:44.151Z,2208.00
2023-06-03T03:33:44.166Z,2202.00
2023-06-03T03:34:44.197Z,2243.00
2023-06-03T03:35:44.211Z,2277.00
2023-06-03T03:36:44.214Z,2336.00
2023-06-03T03:37:44.215Z,2368.00
2023-06-03T03:38:44.215Z,2395.00
2023-06-03T03:39:44.263Z,2442.00
2023-06-03T03:40:44.239Z,2446.00
2023-06-03T03:41:44.273Z,2432.00
2023-06-03T03:42:44.272Z,2438.00
2023-06-03T03:43:44.300Z,2455.00
2023-06-03T03:44:44.299Z,2436.00
2023-06-03T03:45:44.341Z,2443.00
2023-06-03T03:46:44.334Z,2461.00
2023-06-03T03:47:44.301Z,2457.00
2023-06-03T03:48:44.330Z,2445.00
2023-06-03T03:49:44.343Z,2470.00
2023-06-03T03:50:44.366Z,2493.00
2023-06-03T03:51:44.399Z,2509.00
2023-06-03T03:52:44.370Z,2483.00
2023-06-03T03:53:44.410Z,2494.00
2023-06-03T03:54:44.384Z,2514.00
2023-06-03T03:55:44.429Z,2509.00
2023-06-03T03:56:44.397Z,2502.00
2023-06-03T03:57:44.436Z,2431.00
2023-06-03T03:58:44.448Z,2378.00
2023-06-03T03:59:44.466Z,2373.00
2023-06-03T04:00:44.464Z,2344.00
2023-06-03T04:01:44.522Z,2319.00
2023-06-03T04:02:44.534Z,2275.00
2023-06-03T04:03:44.554Z,2303.00
2023-06-03T04:04:44.568Z,2296.00
2023-06-03T04:05:44.540Z,2255.00
2023-06-03T04:06:44.536Z,2286.00
2023-06-03T04:07:44.552Z,2286.00
2023-06-03T04:08:44.577Z,2287.00
2023-06-03T04:09:44.557Z,2283.00
2023-06-03T04:10:44.596Z,2315.00
2023-06-03T04:11:44.579Z,2325.00
2023-06-03T04:12:44.583Z,2355.00
2023-06-03T04:13:44.612Z,2381.00
2023-06-03T04:14:44.615Z,2396.00
2023-06-03T04:15:44.698Z,2433.00
2023-06-03T04:16:44.663Z,2444.00
2023-06-03T04:17:44.706Z,2452.00
2023-06-03T04:18:45.096Z,2433.00
2023-06-03T04:19:44.721Z,2443.00
2023-06-03T04:20:44.731Z,2475.00
2023-06-03T04:21:44.696Z,2510.00
2023-06-03T04:22:44.758Z,2521.00
2023-06-03T04:23:44.755Z,2541.00
2023-06-03T04:24:44.777Z,2546.00
2023-06-03T04:25:44.753Z,2521.00
2023-06-03T04:26:44.795Z,2552.00
2023-06-03T04:27:44.811Z,2533.00
2023-06-03T04:28:44.850Z,2565.00
2023-06-03T04:29:44.825Z,2548.00
2023-06-03T04:30:44.858Z,2588.00
2023-06-03T04:31:44.912Z,2612.00
2023-06-03T04:32:44.949Z,2625.00
2023-06-03T04:33:44.934Z,2616.00
2023-06-03T04:34:44.953Z,2638.00
2023-06-03T04:35:44.931Z,2627.00
2023-06-03T04:36:44.977Z,2630.00
2023-06-03T04:37:44.962Z,2641.00
2023-06-03T04:38:44.963Z,2650.00
2023-06-03T04:39:45.023Z,2622.00
2023-06-03T04:40:45.015Z,2634.00
2023-06-03T04:41:45.023Z,2635.00
2023-06-03T04:42:45.045Z,2681.00
2023-06-03T04:43:45.043Z,2658.00
2023-06-03T04:44:45.062Z,2679.00
2023-06-03T04:45:45.038Z,2647.00
2023-06-03T04:46:45.100Z,2669.00
2023-06-03T04:47:45.124Z,2658.00
2023-06-03T04:48:45.088Z,2702.00
2023-06-03T04:49:45.103Z,2690.00
2023-06-03T04:50:45.084Z,2684.00
2023-06-03T04:51:45.111Z,2664.00
2023-06-03T04:52:45.103Z,2681.00
2023-06-03T04:53:45.142Z,2676.00
2023-06-03T04:54:45.139Z,2659.00
2023-06-03T04:55:45.150Z,2674.00
2023-06-03T04:56:45.152Z,2713.00
2023-06-03T04:57:45.152Z,2686.00
2023-06-03T04:58:45.158Z,2681.00
2023-06-03T04:59:45.252Z,2692.00
2023-06-03T05:00:45.199Z,2702.00
2023-06-03T05:01:45.255Z,2692.00
2023-06-03T05:02:45.235Z,2701.00
2023-06-03T05:03:45.245Z,2727.00
2023-06-03T05:04:45.206Z,2715.00
2023-06-03T05:05:45.186Z,2707.00
2023-06-03T05:06:45.222Z,2737.00
2023-06-03T05:07:45.206Z,2743.00
2023-06-03T05:08:45.251Z,2726.00
2023-06-03T05:09:45.254Z,2730.00
2023-06-03T05:10:45.243Z,2748.00
2023-06-03T05:11:45.245Z,2723.00
2023-06-03T05:12:45.258Z,2757.00
2023-06-03T05:13:45.266Z,2750.00
2023-06-03T05:14:45.873Z,2737.00
2023-06-03T05:15:45.299Z,2760.00
2023-06-03T05:16:45.370Z,2756.00
2023-06-03T05:17:45.372Z,2763.00
2023-06-03T05:18:45.350Z,2769.00
2023-06-03T05:19:45.337Z,2792.00
2023-06-03T05:20:45.316Z,2790.00
2023-06-03T05:21:45.352Z,2818.00
2023-06-03T05:22:45.354Z,2757.00
2023-06-03T05:23:45.382Z,2676.00
2023-06-03T05:24:45.351Z,2648.00
2023-06-03T05:25:45.366Z,2714.00
2023-06-03T05:26:45.346Z,2685.00
2023-06-03T05:27:57.761Z,2711.00
2023-06-03T05:28:46.322Z,2711.00
2023-06-03T05:29:45.291Z,2678.00
2023-06-03T05:30:45.237Z,2586.00
2023-06-03T05:31:45.297Z,2529.00
2023-06-03T05:32:45.192Z,2460.00
2023-06-03T05:33:45.140Z,2444.00
2023-06-03T05:34:45.119Z,2426.00
2023-06-03T05:35:45.067Z,2423.00
2023-06-03T05:36:45.042Z,2403.00
2023-06-03T05:37:45.019Z,2365.00
2023-06-03T05:38:44.971Z,2268.00
2023-06-03T05:39:44.939Z,2258.00
2023-06-03T05:40:44.888Z,2228.00
2023-06-03T05:41:44.887Z,2250.00
2023-06-03T05:42:44.895Z,2287.00
2023-06-03T05:43:44.884Z,2306.00
2023-06-03T05:44:44.860Z,2362.00
2023-06-03T05:45:44.971Z,2385.00
2023-06-03T05:46:44.912Z,2417.00
2023-06-03T05:47:44.997Z,2433.00
2023-06-03T05:48:44.921Z,2453.00
2023-06-03T05:49:44.895Z,2489.00
2023-06-03T05:50:44.901Z,2558.00
2023-06-03T05:51:44.913Z,2603.00
2023-06-03T05:52:44.937Z,2589.00
2023-06-03T05:53:44.996Z,2554.00
2023-06-03T05:54:44.948Z,2571.00
2023-06-03T05:55:44.918Z,2581.00
2023-06-03T05:56:44.961Z,2589.00
2023-06-03T05:57:44.965Z,2568.00
2023-06-03T05:58:45.033Z,2348.00
2023-06-03T05:59:44.972Z,2205.00
2023-06-03T06:00:44.952Z,2102.00
2023-06-03T06:01:44.960Z,2094.00
2023-06-03T06:02:45.012Z,2077.00
2023-06-03T06:03:45.132Z,2123.00
2023-06-03T06:04:45.103Z,2089.00
2023-06-03T06:05:45.012Z,2022.00
2023-06-03T06:06:45.006Z,1974.00
2023-06-03T06:07:45.027Z,1950.00
2023-06-03T06:08:45.039Z,1934.00
2023-06-03T06:09:45.037Z,1961.00
2023-06-03T06:10:45.073Z,2025.00
2023-06-03T06:11:45.060Z,2066.00
2023-06-03T06:12:45.061Z,2113.00
2023-06-03T06:13:45.072Z,2194.00
2023-06-03T06:14:45.073Z,2257.00
2023-06-03T06:15:45.200Z,2264.00
2023-06-03T06:16:45.116Z,2341.00
2023-06-03T06:17:45.129Z,2368.00
2023-06-03T06:18:45.108Z,2426.00
2023-06-03T06:19:45.101Z,2424.00
2023-06-03T06:20:45.071Z,2474.00
2023-06-03T06:21:45.059Z,2373.00
2023-06-03T06:22:45.094Z,2371.00
2023-06-03T06:23:45.163Z,2354.00
2023-06-03T06:24:45.030Z,2304.00
2023-06-03T06:25:45.073Z,2156.00
2023-06-03T06:26:45.045Z,2023.00
2023-06-03T06:27:45.084Z,1968.00
2023-06-03T06:28:45.075Z,1963.00
2023-06-03T06:29:45.053Z,1974.00
2023-06-03T06:30:45.086Z,1977.00
2023-06-03T06:31:45.147Z,2052.00
2023-06-03T06:32:45.125Z,2102.00
2023-06-03T06:33:45.071Z,2035.00
2023-06-03T06:34:45.100Z,1926.00
2023-06-03T06:35:45.127Z,1773.00
2023-06-03T06:36:45.105Z,1708.00
2023-06-03T06:37:46.981Z,1683.00
2023-06-03T06:38:45.102Z,1699.00
2023-06-03T06:39:45.063Z,1637.00
2023-06-03T06:40:45.026Z,1584.00
2023-06-03T06:41:45.006Z,1560.00
2023-06-03T06:42:44.962Z,1529.00
2023-06-03T06:43:44.904Z,1522.00
2023-06-03T06:44:44.950Z,1546.00
2023-06-03T06:45:44.875Z,1613.00
2023-06-03T06:46:44.838Z,1693.00
2023-06-03T06:47:44.819Z,1698.00
2023-06-03T06:48:44.772Z,1577.00
2023-06-03T06:49:44.723Z,1471.00
2023-06-03T06:50:44.791Z,1406.00
2023-06-03T06:51:44.658Z,1354.00
2023-06-03T06:52:44.643Z,1298.00
2023-06-03T06:53:44.574Z,1246.00
2023-06-03T06:54:44.582Z,1175.00
2023-06-03T06:55:45.121Z,1087.00
2023-06-03T06:56:44.516Z,1012.00
2023-06-03T06:57:44.481Z,951.00
2023-06-03T06:58:44.467Z,916.00
2023-06-03T06:59:44.452Z,877.00
2023-06-03T07:00:44.386Z,806.00
2023-06-03T07:01:44.421Z,831.00
2023-06-03T07:02:44.352Z,824.00
2023-06-03T07:03:44.330Z,800.00
2023-06-03T07:04:44.263Z,749.00
2023-06-03T07:05:44.223Z,773.00
2023-06-03T07:06:44.200Z,778.00
2023-06-03T07:07:44.175Z,746.00
2023-06-03T07:08:44.184Z,710.00
2023-06-03T07:09:44.131Z,671.00
2023-06-03T07:10:44.091Z,650.00
2023-06-03T07:11:44.049Z,626.00
2023-06-03T07:12:44.054Z,590.00
2023-06-03T07:13:43.989Z,562.00
2023-06-03T07:14:43.980Z,557.00
2023-06-03T07:15:43.957Z,560.00
2023-06-03T07:16:44.038Z,531.00
2023-06-03T07:17:43.956Z,523.00
2023-06-03T07:18:43.877Z,521.00
2023-06-03T07:19:43.838Z,509.00
2023-06-03T07:20:43.821Z,510.00
2023-06-03T07:21:43.777Z,509.00
2023-06-03T07:22:43.777Z,513.00
2023-06-03T07:23:43.850Z,508.00
2023-06-03T07:24:43.794Z,510.00
2023-06-03T07:25:43.836Z,500.00
2023-06-03T07:26:43.841Z,506.00
2023-06-03T07:27:43.876Z,500.00
2023-06-03T07:28:43.908Z,499.00
2023-06-03T07:29:43.925Z,530.00
2023-06-03T07:30:43.919Z,531.00
2023-06-03T07:31:44.007Z,539.00
2023-06-03T07:32:43.990Z,517.00
2023-06-03T07:33:44.009Z,525.00
2023-06-03T07:34:44.045Z,529.00
2023-06-03T07:35:44.054Z,518.00
2023-06-03T07:36:44.075Z,513.00
2023-06-03T07:37:44.082Z,523.00
2023-06-03T07:38:44.087Z,525.00
2023-06-03T07:39:44.129Z,546.00
2023-06-03T07:40:44.174Z,539.00
2023-06-03T07:41:44.169Z,560.00
2023-06-03T07:42:44.210Z,606.00
2023-06-03T07:43:44.207Z,641.00
2023-06-03T07:44:44.307Z,692.00
2023-06-03T07:45:44.210Z,738.00
2023-06-03T07:46:44.465Z,854.00
2023-06-03T07:47:44.260Z,911.00
2023-06-03T07:48:44.214Z,976.00
2023-06-03T07:49:44.256Z,1069.00
2023-06-03T07:50:44.285Z,1051.00
2023-06-03T07:51:44.258Z,1008.00
2023-06-03T07:52:44.279Z,857.00
2023-06-03T07:53:44.359Z,702.00
2023-06-03T07:54:44.331Z,655.00
2023-06-03T07:55:44.289Z,628.00
2023-06-03T07:56:44.357Z,600.00
2023-06-03T07:57:44.374Z,620.00
2023-06-03T07:58:44.468Z,646.00
2023-06-03T07:59:44.372Z,693.00
2023-06-03T08:00:44.407Z,791.00
2023-06-03T08:01:44.446Z,838.00
2023-06-03T08:02:44.501Z,915.00
2023-06-03T08:03:44.370Z,958.00
2023-06-03T08:04:44.399Z,1030.00
2023-06-03T08:05:44.381Z,1083.00
2023-06-03T08:06:44.449Z,1071.00
2023-06-03T08:07:44.438Z,1116.00
2023-06-03T08:08:44.435Z,1175.00
2023-06-03T08:09:44.545Z,1148.00
2023-06-03T08:10:44.466Z,1147.00
2023-06-03T08:11:44.488Z,1252.00
2023-06-03T08:12:44.508Z,1295.00
2023-06-03T08:13:44.517Z,1432.00
2023-06-03T08:14:44.491Z,1506.00
2023-06-03T08:15:44.482Z,1557.00
2023-06-03T08:16:44.459Z,1690.00
2023-06-03T08:17:44.432Z,1636.00
2023-06-03T08:18:44.416Z,1589.00
2023-06-03T08:19:44.411Z,1664.00
2023-06-03T08:20:44.402Z,1695.00
2023-06-03T08:21:44.385Z,1667.00
2023-06-03T08:22:44.396Z,1717.00
2023-06-03T08:23:44.402Z,1641.00
2023-06-03T08:24:44.333Z,1525.00
2023-06-03T08:25:44.304Z,1503.00
2023-06-03T08:26:44.287Z,1573.00
2023-06-03T08:27:44.263Z,1574.00
2023-06-03T08:28:44.227Z,1530.00
2023-06-03T08:29:44.231Z,1473.00
2023-06-03T08:30:44.235Z,1470.00
2023-06-03T08:31:44.270Z,1514.00
2023-06-03T08:32:44.219Z,1495.00
2023-06-03T08:33:44.197Z,1530.00
2023-06-03T08:34:44.170Z,1557.00
2023-06-03T08:35:44.162Z,1653.00
2023-06-03T08:36:44.142Z,1684.00
2023-06-03T08:37:44.144Z,1752.00
2023-06-03T08:38:44.136Z,1728.00
2023-06-03T08:39:44.102Z,1735.00
2023-06-03T08:40:44.094Z,1799.00
2023-06-03T08:41:44.080Z,1837.00
2023-06-03T08:42:44.027Z,1572.00
2023-06-03T08:43:44.039Z,1566.00
2023-06-03T08:44:44.034Z,1568.00
2023-06-03T08:45:44.032Z,1522.00
2023-06-03T08:46:43.990Z,1584.00
2023-06-03T08:47:44.014Z,1609.00
2023-06-03T08:48:43.957Z,1527.00
2023-06-03T08:49:43.943Z,1542.00
2023-06-03T08:50:43.915Z,1544.00
2023-06-03T08:51:43.913Z,1526.00
2023-06-03T08:52:43.888Z,1581.00
2023-06-03T08:53:43.861Z,1620.00
2023-06-03T08:54:43.831Z,1646.00
2023-06-03T08:55:43.789Z,1697.00
2023-06-03T08:56:43.773Z,1704.00
2023-06-03T08:57:43.759Z,1747.00
2023-06-03T08:58:43.763Z,1778.00
2023-06-03T08:59:43.729Z,1785.00
2023-06-03T09:00:43.701Z,1846.00
2023-06-03T09:01:43.750Z,1833.00
2023-06-03T09:02:43.665Z,1724.00
2023-06-03T09:03:43.689Z,1690.00
2023-06-03T09:04:43.646Z,1731.00
2023-06-03T09:05:43.590Z,1717.00
2023-06-03T09:06:43.591Z,1824.00
2023-06-03T09:07:43.545Z,1814.00
2023-06-03T09:08:43.515Z,1708.00
2023-06-03T09:09:43.631Z,1583.00
2023-06-03T09:10:43.542Z,1507.00
2023-06-03T09:11:43.442Z,1390.00
2023-06-03T09:12:43.447Z,1428.00
2023-06-03T09:13:43.418Z,1420.00
2023-06-03T09:14:43.408Z,1468.00
2023-06-03T09:15:43.452Z,1488.00
2023-06-03T09:16:43.367Z,1534.00
2023-06-03T09:17:43.388Z,1606.00
2023-06-03T09:18:43.300Z,1517.00
2023-06-03T09:19:43.295Z,1539.00
2023-06-03T09:20:43.285Z,1612.00
2023-06-03T09:21:43.287Z,1585.00
2023-06-03T09:22:43.240Z,1628.00
2023-06-03T09:23:43.252Z,1623.00
2023-06-03T09:24:43.185Z,1582.00
2023-06-03T09:25:43.161Z,1673.00
2023-06-03T09:26:43.141Z,1623.00
2023-06-03T09:27:43.094Z,1655.00
2023-06-03T09:28:43.089Z,1745.00
2023-06-03T09:29:43.057Z,1812.00
2023-06-03T09:30:43.028Z,1749.00
2023-06-03T09:31:43.037Z,1623.00
2023-06-03T09:32:42.985Z,1519.00
2023-06-03T09:33:42.982Z,1427.00
2023-06-03T09:34:42.918Z,1464.00
2023-06-03T09:35:42.895Z,1458.00
2023-06-03T09:36:42.868Z,1470.00
2023-06-03T09:37:42.840Z,1359.00
2023-06-03T09:38:42.795Z,1356.00
2023-06-03T09:39:42.809Z,1318.00
2023-06-03T09:40:42.759Z,1311.00
2023-06-03T09:41:42.729Z,1380.00
2023-06-03T09:42:42.714Z,1376.00
2023-06-03T09:43:42.676Z,1354.00
2023-06-03T09:44:42.646Z,1454.00
2023-06-03T09:45:42.603Z,1533.00
2023-06-03T09:46:42.600Z,1543.00
2023-06-03T09:47:42.575Z,1464.00
2023-06-03T09:48:42.545Z,1330.00
2023-06-03T09:50:42.449Z,1194.00
2023-06-03T09:51:42.410Z,1090.00
2023-06-03T09:52:42.376Z,1008.00
2023-06-03T09:53:42.308Z,983.00
2023-06-03T09:54:42.248Z,941.00
2023-06-03T09:55:42.158Z,878.00
2023-06-03T09:56:42.197Z,823.00
2023-06-03T09:57:42.085Z,693.00
2023-06-03T09:58:41.984Z,701.00
2023-06-03T09:59:41.958Z,646.00
2023-06-03T10:00:41.901Z,630.00
2023-06-03T10:01:41.854Z,652.00
2023-06-03T10:02:41.984Z,653.00
2023-06-03T10:03:41.741Z,706.00
2023-06-03T10:04:41.694Z,729.00
2023-06-03T10:05:41.637Z,634.00
2023-06-03T10:06:41.566Z,609.00
2023-06-03T10:07:41.545Z,596.00
2023-06-03T10:08:41.475Z,635.00
2023-06-03T10:09:41.433Z,649.00
2023-06-03T10:10:41.389Z,642.00
2023-06-03T10:11:41.319Z,654.00
2023-06-03T10:12:41.300Z,635.00
2023-06-03T10:13:41.276Z,644.00
2023-06-03T10:14:41.172Z,734.00
2023-06-03T10:15:41.166Z,753.00
2023-06-03T10:16:41.168Z,657.00
2023-06-03T10:17:41.054Z,675.00
2023-06-03T10:18:40.984Z,933.00
2023-06-03T10:19:40.984Z,990.00
2023-06-03T10:20:40.918Z,1051.00
2023-06-03T10:21:40.897Z,895.00
2023-06-03T10:22:40.880Z,825.00
2023-06-03T10:23:40.830Z,822.00
2023-06-03T10:24:40.739Z,752.00
2023-06-03T10:25:40.677Z,816.00
2023-06-03T10:26:40.640Z,850.00
2023-06-03T10:27:40.621Z,1072.00
2023-06-03T10:28:40.606Z,1163.00
2023-06-03T10:29:40.504Z,1225.00
2023-06-03T10:30:40.483Z,1255.00
2023-06-03T10:31:40.426Z,1294.00
2023-06-03T10:32:40.380Z,1274.00
2023-06-03T10:33:40.497Z,1263.00
2023-06-03T10:34:40.343Z,1290.00
2023-06-03T10:35:40.245Z,1294.00
2023-06-03T10:36:40.215Z,1278.00
2023-06-03T10:37:40.144Z,1212.00
2023-06-03T10:38:40.123Z,1238.00
2023-06-03T10:39:40.060Z,1153.00
2023-06-03T10:40:40.039Z,1006.00
2023-06-03T10:41:39.960Z,963.00
2023-06-03T10:42:39.945Z,1180.00
2023-06-03T10:43:39.880Z,1297.00
2023-06-03T10:44:39.829Z,1145.00
2023-06-03T10:45:39.782Z,1164.00
2023-06-03T10:46:39.792Z,1226.00
2023-06-03T10:47:39.734Z,1263.00
2023-06-03T10:48:39.657Z,1252.00
2023-06-03T10:49:39.607Z,1212.00
2023-06-03T10:50:39.561Z,1300.00
2023-06-03T10:51:39.498Z,1270.00
2023-06-03T10:52:39.472Z,1276.00
2023-06-03T10:53:39.439Z,1101.00
2023-06-03T10:54:39.401Z,949.00
2023-06-03T10:55:39.398Z,994.00
2023-06-03T10:56:39.280Z,1031.00
2023-06-03T10:57:39.269Z,1114.00
2023-06-03T10:58:39.192Z,1161.00
2023-06-03T10:59:39.159Z,1200.00
2023-06-03T11:00:39.081Z,1188.00
2023-06-03T11:01:39.078Z,1110.00
2023-06-03T11:02:39.024Z,1167.00
2023-06-03T11:03:38.963Z,1219.00
2023-06-03T11:04:38.868Z,1226.00
2023-06-03T11:05:38.854Z,1239.00
2023-06-03T11:06:38.773Z,1115.00
2023-06-03T11:07:38.721Z,1044.00
2023-06-03T11:08:38.672Z,963.00
2023-06-03T11:09:38.633Z,939.00
2023-06-03T11:10:38.600Z,1117.00
2023-06-03T11:11:38.490Z,1121.00
2023-06-03T11:12:38.442Z,1146.00
2023-06-03T11:13:38.418Z,1141.00
2023-06-03T11:14:38.373Z,1177.00
2023-06-03T11:15:38.284Z,1195.00
2023-06-03T11:16:38.251Z,1146.00
2023-06-03T11:17:38.231Z,1004.00
2023-06-03T11:18:38.123Z,1015.00
2023-06-03T11:19:38.065Z,1154.00
2023-06-03T11:20:37.985Z,1205.00
2023-06-03T11:21:37.945Z,1170.00
2023-06-03T11:22:37.888Z,1160.00
2023-06-03T11:23:37.855Z,1131.00
2023-06-03T11:24:37.814Z,1099.00
2023-06-03T11:25:37.701Z,1108.00
2023-06-03T11:26:37.660Z,1063.00
2023-06-03T11:27:37.600Z,1066.00
2023-06-03T11:28:38.049Z,1065.00
2023-06-03T11:29:37.541Z,1136.00
2023-06-03T11:30:37.443Z,1128.00
2023-06-03T11:31:37.455Z,1064.00
2023-06-03T11:32:37.426Z,836.00
2023-06-03T11:33:37.347Z,912.00
2023-06-03T11:34:37.266Z,1015.00
2023-06-03T11:35:37.219Z,922.00
2023-06-03T11:36:37.223Z,890.00
2023-06-03T11:37:37.206Z,829.00
2023-06-03T11:38:37.194Z,974.00
2023-06-03T11:39:37.161Z,986.00
2023-06-03T11:40:37.127Z,1001.00
2023-06-03T11:41:37.092Z,1042.00
2023-06-03T11:42:37.033Z,891.00
2023-06-03T11:43:37.002Z,805.00
2023-06-03T11:44:37.008Z,782.00
2023-06-03T11:45:36.946Z,748.00
2023-06-03T11:46:36.937Z,841.00
2023-06-03T11:47:36.913Z,852.00
2023-06-03T11:48:36.912Z,860.00
2023-06-03T11:49:36.896Z,840.00
2023-06-03T11:50:36.882Z,781.00
2023-06-03T11:51:36.828Z,778.00
2023-06-03T11:52:36.841Z,671.00
2023-06-03T11:53:36.848Z,641.00
2023-06-03T11:54:36.809Z,608.00
2023-06-03T11:55:36.766Z,614.00
2023-06-03T11:56:36.715Z,635.00
2023-06-03T11:57:36.711Z,579.00
2023-06-03T11:58:36.701Z,565.00
2023-06-03T11:59:36.690Z,568.00
2023-06-03T12:00:36.651Z,624.00
2023-06-03T12:01:36.701Z,664.00
2023-06-03T12:02:38.184Z,671.00
2023-06-03T12:03:36.767Z,637.00
2023-06-03T12:04:36.696Z,536.00
2023-06-03T12:05:36.626Z,467.00
2023-06-03T12:06:36.569Z,537.00
2023-06-03T12:07:36.581Z,569.00
2023-06-03T12:08:38.159Z,600.00
2023-06-03T12:09:36.548Z,633.00
2023-06-03T12:10:36.490Z,611.00
2023-06-03T12:11:36.477Z,574.00